Flight Track Log - Related Links

Times and Time Zones

All times are in EST time to prevent confusion due to time zone crossing. See the CPT8773 flight status page for this flight to view local times or setup timezone preferences in your user account.

Time Position Orientation Groundspeed Altitude Reporting Facility
EST Latitude Longitude Course Direction KTS MPH feet Rate Location/Type
Tue 10:36:18 AM 42.9294 -106.4978 349° North 102 117 7,300  Level Salt Lake Center
Tue 10:37:20 AM 42.9525 -106.5069 344° North 93 107 8,100 720 Climbing Salt Lake Center
Tue 10:38:23 AM 42.9811 -106.5128 352° North 93 107 8,800 672 Climbing Denver Center
Tue 10:39:25 AM 43.0056 -106.5219 345° North 94 108 9,500 677 Climbing Denver Center
Tue 10:40:00 AM 43.0522 -106.6843 307° West  Level Estimated
Tue 10:40:27 AM 43.0339 -106.5317 346° North 94 108 10,200  Level Denver Center
Tue 10:41:00 AM 43.0876 -106.6941 349° North  Level FlightAware Approximate
Tue 10:41:29 AM 43.0575 -106.5417 343° North 93 107 10,700  Level Denver Center
Tue 10:42:31 AM 43.0808 -106.5506 344° North 93 107 11,200 532 Climbing Denver Center
Tue 10:43:33 AM 43.1075 -106.5622 342° North 91 105 11,800 439 Climbing Denver Center
Tue 10:44:34 AM 43.1347 -106.5703 348° North 99 114 12,100 98 Climbing Denver Center
Tue 10:45:36 AM 43.1728 -106.5839 345° North 120 138 12,000 -48 Descending Denver Center
Tue 10:46:38 AM 43.2064 -106.5992 342° North 131 151 12,000  Level Denver Center
Tue 10:47:40 AM 43.2472 -106.6167 343° North 136 157 12,000  Level Denver Center
Tue 10:48:37 AM 43.2783 -106.6364 335° Northwest 135 155 12,000  Level Salt Lake Center
Tue 10:49:39 AM 43.2956 -106.6806 298° West 135 155 12,000  Level Salt Lake Center
Tue 10:50:41 AM 43.3217 -106.7250 309° West 134 154 12,000 49 Level Salt Lake Center
Tue 10:51:42 AM 43.3447 -106.7633 310° West 135 155 12,100  Climbing Salt Lake Center
Tue 10:52:44 AM 43.3656 -106.8050 305° West 138 159 12,000 -48 Descending Salt Lake Center
Tue 10:53:46 AM 43.3889 -106.8531 304° West 137 158 12,000 48 Level Salt Lake Center
Tue 10:54:48 AM 43.4100 -106.8919 307° West 135 155 12,100  Climbing Salt Lake Center
Tue 10:55:49 AM 43.4314 -106.9342 305° West 135 155 12,000 -49 Descending Salt Lake Center
Tue 10:56:51 AM 43.4528 -106.9775 304° West 136 157 12,000 48 Level Salt Lake Center
Tue 10:57:53 AM 43.4806 -107.0247 309° West 134 154 12,100 48 Climbing Salt Lake Center
Tue 10:58:55 AM 43.5014 -107.0647 306° West 129 148 12,100 -48 Level Salt Lake Center
Tue 10:59:57 AM 43.5228 -107.1031 308° West 128 147 12,000 -49 Descending Salt Lake Center
Tue 11:00:58 AM 43.5419 -107.1433 303° West 126 145 12,000  Level Salt Lake Center
Tue 11:02:00 AM 43.5619 -107.1819 306° West 124 143 12,000  Level Salt Lake Center
Tue 11:03:02 AM 43.5828 -107.2194 307° West 123 142 12,000 48 Level Salt Lake Center
Tue 11:04:04 AM 43.6017 -107.2572 305° West 121 139 12,100  Climbing Salt Lake Center
Tue 11:05:06 AM 43.6264 -107.3011 308° West 121 139 12,000 -48 Descending Salt Lake Center
Tue 11:06:08 AM 43.6478 -107.3392 308° West 124 143 12,000  Level Salt Lake Center
Tue 11:07:10 AM 43.6675 -107.3756 307° West 122 140 12,000  Level Salt Lake Center
Tue 11:08:11 AM 43.6867 -107.4150 304° West 122 140 12,000 49 Level Salt Lake Center
Tue 11:09:13 AM 43.7075 -107.4531 307° West 123 142 12,100  Climbing Salt Lake Center
Tue 11:10:15 AM 43.7283 -107.4936 305° West 125 144 12,000  Descending Salt Lake Center
Tue 11:11:17 AM 43.7536 -107.5400 307° West 127 146 12,100 48 Climbing Salt Lake Center
Tue 11:12:19 AM 43.7744 -107.5808 305° West 127 146 12,100  Level Salt Lake Center
Tue 11:13:21 AM 43.7950 -107.6217 305° West 128 147 12,100  Level Salt Lake Center
Tue 11:14:23 AM 43.8158 -107.6608 306° West 128 147 12,100 -48 Level Salt Lake Center
Tue 11:15:25 AM 43.8369 -107.7008 306° West 128 147 12,000  Descending Salt Lake Center
Tue 11:16:27 AM 43.8578 -107.7394 307° West 127 146 12,100 48 Climbing Salt Lake Center
Tue 11:17:29 AM 43.8833 -107.7847 308° West 126 145 12,100  Level Salt Lake Center
Tue 11:18:31 AM 43.9033 -107.8256 304° West 126 145 12,100  Level Salt Lake Center
Tue 11:19:33 AM 43.9242 -107.8644 307° West 126 145 12,100  Level Salt Lake Center
Tue 11:20:35 AM 43.9442 -107.9047 305° West 126 145 12,100  Level Salt Lake Center
Tue 11:21:37 AM 43.9653 -107.9456 306° West 128 147 12,100  Level Salt Lake Center
Tue 11:22:39 AM 43.9869 -107.9858 307° West 129 148 12,100  Level Salt Lake Center
Tue 11:23:41 AM 44.0089 -108.0253 308° West 129 148 12,100 -48 Level Salt Lake Center
Tue 11:24:43 AM 44.0347 -108.0742 306° West 130 150 12,000  Descending Salt Lake Center
Tue 11:25:45 AM 44.0558 -108.1161 305° West 131 151 12,100  Climbing Salt Lake Center
Tue 11:26:47 AM 44.0775 -108.1569 306° West 131 151 12,000 -290 Descending Salt Lake Center
Tue 11:27:49 AM 44.1011 -108.2008 307° West 135 155 11,500 -532 Descending Salt Lake Center
Tue 11:28:51 AM 44.1275 -108.2492 307° West 143 165 10,900 -532 Descending Salt Lake Center
Tue 11:29:53 AM 44.1528 -108.3003 305° West 152 175 10,400 -581 Descending Salt Lake Center
Tue 11:30:55 AM 44.1831 -108.3608 305° West 156 180 9,700 -581 Descending Salt Lake Center
Tue 11:31:57 AM 44.2078 -108.4092 306° West 156 180 9,200 -339 Descending Salt Lake Center
Tue 11:32:59 AM 44.2325 -108.4558 306° West 154 177 9,000 -97 Descending Salt Lake Center
Tue 11:34:01 AM 44.2542 -108.5003 304° West 148 170 9,000 48 Level Salt Lake Center
Tue 11:35:03 AM 44.2744 -108.5422 304° West 140 161 9,100 97 Climbing Salt Lake Center

Login

Don't have an account? Register now (free) for customized features, flight alerts, and more!